Time;durP1;ratioP1;P1;durP2;ratioP2;P2;SDS_P1;SDS_P2;PMS_P1;PMS_P2;Temp;Humidity;BMP_temperature;BMP_pressure;BME280_temperature;BME280_humidity;BME280_pressure;Samples;Min_cycle;Max_cycle;Signal;HPM_P1;HPM_P2
2022/01/31 00:01:37;;;;;;;;;;;;;;;21.32;41.47;100997.19;5079382;28;5614;-63
2022/01/31 00:04:04;;;;;;;;;;;;;;;21.33;41.48;100987.91;5076308;28;4252;-63
2022/01/31 00:06:30;;;;;;;;;;;;;;;21.32;41.58;101003.69;5079983;28;4404;-63
2022/01/31 00:08:56;;;;;;;;;;;;;;;21.32;41.54;101005.81;5080405;28;5325;-63
2022/01/31 00:11:23;;;;;;;;;;;;;;;21.31;41.56;100982.06;5076857;28;4513;-63
2022/01/31 00:13:59;;;;;;;;;;;;;;;21.31;41.60;100979.16;5077711;28;5111;-63
2022/01/31 00:16:31;;;;;;;;;;;;;;;21.31;41.62;100976.28;5077503;28;4209;-63
2022/01/31 00:18:58;;;;;;;;;;;;;;;21.32;41.59;100962.63;5078761;28;4515;-63
2022/01/31 00:21:24;;;;;;;;;;;;;;;21.34;41.65;100959.84;5080184;28;4348;-63
2022/01/31 00:23:51;;;;;;;;;;;;;;;21.34;41.48;100942.56;5078120;28;4280;-63
2022/01/31 00:26:18;;;;;;;;;;;;;;;21.33;41.64;100933.19;5079198;28;5415;-63
2022/01/31 00:28:44;;;;;;;;;;;;;;;21.32;41.66;100934.56;5073997;28;4250;-64
2022/01/31 00:31:10;;;;;;;;;;;;;;;21.29;41.63;100921.47;5075578;28;4112;-64
2022/01/31 00:33:37;;;;;;;;;;;;;;;21.32;41.58;100928.78;5078304;28;4101;-64
2022/01/31 00:36:03;;;;;;;;;;;;;;;21.31;41.84;100921.56;5079433;28;4197;-63
2022/01/31 00:38:29;;;;;;;;;;;;;;;21.31;41.63;100927.31;5077564;28;4237;-64
2022/01/31 00:40:56;;;;;;;;;;;;;;;21.32;41.64;100939.56;5057669;28;4231;-63
2022/01/31 00:43:22;;;;;;;;;;;;;;;21.31;41.65;100927.31;5077381;28;3996;-62
2022/01/31 00:46:00;;;;;;;;;;;;;;;21.32;41.75;100920.16;5066283;28;4254;-63
2022/01/31 00:48:29;;;;;;;;;;;;;;;21.34;41.73;100913.75;5055299;28;4188;-62
2022/01/31 00:50:56;;;;;;;;;;;;;;;21.33;41.65;100898.63;5077568;28;5468;-62
2022/01/31 00:53:22;;;;;;;;;;;;;;;21.30;41.71;100899.94;5078690;28;4354;-62
2022/01/31 00:55:48;;;;;;;;;;;;;;;21.30;41.88;100899.16;5078749;28;4063;-62
2022/01/31 00:58:15;;;;;;;;;;;;;;;21.29;41.89;100889.78;5077084;28;4238;-62
2022/01/31 01:00:42;;;;;;;;;;;;;;;21.28;41.75;100870.28;5076125;28;5346;-62
2022/01/31 01:03:08;;;;;;;;;;;;;;;21.28;41.82;100870.28;5056699;28;5342;-63
2022/01/31 01:05:36;;;;;;;;;;;;;;;21.34;41.79;100871.28;5063009;28;5180;-63
2022/01/31 01:08:03;;;;;;;;;;;;;;;21.37;41.77;100865.59;5058954;28;5039;-63
2022/01/31 01:10:31;;;;;;;;;;;;;;;21.37;41.66;100862.72;5078588;28;4268;-63
2022/01/31 01:12:58;;;;;;;;;;;;;;;21.38;41.54;100867.09;5077547;28;4250;-63
2022/01/31 01:15:24;;;;;;;;;;;;;;;21.39;41.80;100862.81;5054641;28;4071;-63
2022/01/31 01:17:51;;;;;;;;;;;;;;;21.39;41.78;100860.66;5055240;28;4282;-63
2022/01/31 01:20:17;;;;;;;;;;;;;;;21.39;41.79;100839.78;5078419;28;4225;-64
2022/01/31 01:22:44;;;;;;;;;;;;;;;21.38;41.84;100839.03;5059481;28;5636;-64
2022/01/31 01:25:12;;;;;;;;;;;;;;;21.39;41.61;100816.72;5059652;28;4197;-63
2022/01/31 01:27:39;;;;;;;;;;;;;;;21.39;41.61;100819.59;5073404;28;4251;-63
2022/01/31 01:30:06;;;;;;;;;;;;;;;21.36;41.74;100818.78;5059513;28;4253;-63
2022/01/31 01:32:41;;;;;;;;;;;;;;;21.34;41.74;100810.78;5060931;28;4263;-63
2022/01/31 01:35:08;;;;;;;;;;;;;;;21.33;41.94;100803.56;5059731;28;4159;-64
2022/01/31 01:37:34;;;;;;;;;;;;;;;21.34;41.81;100799.28;5060533;28;4256;-63
2022/01/31 01:40:01;;;;;;;;;;;;;;;21.37;41.82;100802.25;5071014;28;4202;-64
2022/01/31 01:42:27;;;;;;;;;;;;;;;21.37;41.70;100790.72;5057987;28;4621;-63
2022/01/31 01:44:54;;;;;;;;;;;;;;;21.38;41.75;100789.34;5074899;28;4223;-63
2022/01/31 01:47:23;;;;;;;;;;;;;;;21.38;41.87;100781.44;5054690;28;5434;-63
2022/01/31 01:49:50;;;;;;;;;;;;;;;21.38;41.71;100777.81;5077680;28;4203;-63
2022/01/31 01:52:19;;;;;;;;;;;;;;;21.38;41.87;100766.28;5060103;28;5551;-63
2022/01/31 01:54:45;;;;;;;;;;;;;;;21.36;41.70;100749.66;5073926;28;4047;-63
2022/01/31 01:57:12;;;;;;;;;;;;;;;21.37;41.87;100747.50;5054341;28;4020;-63
2022/01/31 01:59:41;;;;;;;;;;;;;;;21.37;41.89;100750.38;5077674;28;4072;-63
2022/01/31 02:02:23;;;;;;;;;;;;;;;21.37;41.84;100738.88;5060191;28;4194;-63
2022/01/31 02:04:49;;;;;;;;;;;;;;;21.39;41.99;100738.94;5054377;28;5412;-63
2022/01/31 02:07:29;;;;;;;;;;;;;;;21.39;41.79;100736.06;5059619;28;4190;-63
2022/01/31 02:09:56;;;;;;;;;;;;;;;21.38;42.00;100732.47;5077203;28;4409;-63
2022/01/31 02:12:24;;;;;;;;;;;;;;;21.39;41.83;100721.66;5058175;28;5502;-63
2022/01/31 02:14:51;;;;;;;;;;;;;;;21.39;41.84;100704.38;5074962;28;4020;-63
2022/01/31 02:17:43;;;;;;;;;;;;;;;21.39;41.92;100702.25;5080589;28;4211;-63
2022/01/31 02:20:15;;;;;;;;;;;;;;;21.38;42.05;100700.03;5062705;28;4126;-63
2022/01/31 02:22:42;;;;;;;;;;;;;;;21.38;41.97;100694.28;5081037;28;4219;-63
2022/01/31 02:25:24;;;;;;;;;;;;;;;21.36;41.97;100686.28;5062344;28;5424;-63
2022/01/31 02:28:30;;;;;;;;;;;;;;;21.37;42.13;100675.50;5073090;28;5241;-64
2022/01/31 02:30:56;;;;;;;;;;;;;;;21.37;42.03;100669.75;5059627;28;5142;-64
2022/01/31 02:33:23;;;;;;;;;;;;;;;21.37;42.08;100664.72;5060281;28;4138;-63
2022/01/31 02:35:52;;;;;;;;;;;;;;;21.39;41.95;100655.41;5065884;28;4278;-63
2022/01/31 02:38:19;;;;;;;;;;;;;;;21.39;41.83;100661.19;5079153;28;5400;-63
2022/01/31 02:40:50;;;;;;;;;;;;;;;21.40;41.92;100654.03;5079427;28;4093;-63
2022/01/31 02:43:26;;;;;;;;;;;;;;;21.40;42.01;100639.63;5079786;28;3956;-63
2022/01/31 02:45:52;;;;;;;;;;;;;;;21.38;42.11;100636.69;5059047;28;4036;-63
2022/01/31 02:48:22;;;;;;;;;;;;;;;21.32;41.98;100619.88;5080317;28;5825;-64
2022/01/31 02:50:48;;;;;;;;;;;;;;;21.29;42.31;100616.19;5082593;28;4124;-63
2022/01/31 02:53:26;;;;;;;;;;;;;;;21.27;42.33;100616.09;5063382;28;4495;-63
2022/01/31 02:55:55;;;;;;;;;;;;;;;21.26;42.20;100602.38;5056927;28;4232;-63
2022/01/31 02:58:22;;;;;;;;;;;;;;;21.27;42.27;100598.09;5063044;28;4163;-63
2022/01/31 03:00:50;;;;;;;;;;;;;;;21.29;42.20;100606.81;5064340;28;4203;-63
2022/01/31 03:03:20;;;;;;;;;;;;;;;21.40;41.89;100591.44;5064705;28;5430;-63
2022/01/31 03:05:47;;;;;;;;;;;;;;;21.45;42.00;100586.56;5064267;28;4358;-63
2022/01/31 03:08:14;;;;;;;;;;;;;;;21.44;42.01;100588.72;5059248;28;4222;-63
2022/01/31 03:10:41;;;;;;;;;;;;;;;21.45;41.98;100577.91;5061927;28;4159;-63
2022/01/31 03:13:09;;;;;;;;;;;;;;;21.44;41.97;100577.19;5061980;28;4354;-63
2022/01/31 03:15:41;;;;;;;;;;;;;;;21.42;41.92;100568.47;5078109;28;5330;-63
2022/01/31 03:18:11;;;;;;;;;;;;;;;21.43;41.91;100563.44;5081753;28;4216;-63
2022/01/31 03:20:38;;;;;;;;;;;;;;;21.43;42.11;100551.91;5079206;28;4034;-63
2022/01/31 03:23:05;;;;;;;;;;;;;;;21.43;42.02;100557.69;5066393;28;4669;-63
2022/01/31 03:25:33;;;;;;;;;;;;;;;21.44;41.90;100548.38;5079909;28;4293;-63
2022/01/31 03:28:00;;;;;;;;;;;;;;;21.45;42.00;100552.00;5079860;28;4343;-63
2022/01/31 03:30:26;;;;;;;;;;;;;;;21.44;41.90;100527.47;5057772;28;4343;-63
2022/01/31 03:32:54;;;;;;;;;;;;;;;21.45;42.00;100521.03;5056149;28;5321;-63
2022/01/31 03:35:22;;;;;;;;;;;;;;;21.46;41.84;100513.13;5056296;28;4192;-63
2022/01/31 03:37:48;;;;;;;;;;;;;;;21.46;41.98;100498.72;5062906;28;4591;-63
2022/01/31 03:40:22;;;;;;;;;;;;;;;21.46;41.99;100492.97;5060925;28;4607;-63
2022/01/31 03:42:49;;;;;;;;;;;;;;;21.46;42.03;100484.31;5062484;28;5306;-63
2022/01/31 03:45:16;;;;;;;;;;;;;;;21.45;41.85;100474.22;5060684;28;4263;-63
2022/01/31 03:47:44;;;;;;;;;;;;;;;21.44;42.07;100467.72;5062857;28;4197;-63
2022/01/31 03:50:12;;;;;;;;;;;;;;;21.42;42.10;100464.78;5051730;28;4373;-63
2022/01/31 03:52:39;;;;;;;;;;;;;;;21.46;42.04;100461.28;5058723;28;4084;-63
2022/01/31 03:55:05;;;;;;;;;;;;;;;21.47;41.83;100459.91;5076465;28;4227;-63
2022/01/31 03:57:33;;;;;;;;;;;;;;;21.46;41.85;100441.13;5054166;28;5259;-63
2022/01/31 04:00:18;;;;;;;;;;;;;;;21.47;41.95;100442.59;5081644;28;5853;-63
2022/01/31 04:02:45;;;;;;;;;;;;;;;21.47;41.83;100419.56;5081765;28;5300;-63
2022/01/31 04:05:11;;;;;;;;;;;;;;;21.47;42.16;100413.81;5077782;28;4371;-63
2022/01/31 04:07:37;;;;;;;;;;;;;;;21.47;41.84;100413.81;5075189;28;4132;-62
2022/01/31 04:10:05;;;;;;;;;;;;;;;21.47;42.15;100402.28;5079644;28;4190;-63
2022/01/31 04:12:31;;;;;;;;;;;;;;;21.47;41.97;100411.66;5077077;28;4170;-63
2022/01/31 04:14:57;;;;;;;;;;;;;;;21.48;41.95;100397.97;5079296;28;5334;-63
2022/01/31 04:17:25;;;;;;;;;;;;;;;21.48;41.83;100397.97;5077871;28;4148;-63
2022/01/31 04:19:52;;;;;;;;;;;;;;;21.49;42.02;100393.72;5079285;28;4210;-62
2022/01/31 04:22:20;;;;;;;;;;;;;;;21.49;42.00;100390.84;5079765;28;4909;-64
2022/01/31 04:24:53;;;;;;;;;;;;;;;21.51;41.96;100379.38;5075880;28;4185;-62
2022/01/31 04:27:19;;;;;;;;;;;;;;;21.51;41.98;100362.81;5078860;28;5568;-63
2022/01/31 04:29:47;;;;;;;;;;;;;;;21.49;42.15;100370.66;5076428;28;5492;-63
2022/01/31 04:32:13;;;;;;;;;;;;;;;21.49;41.97;100354.13;5078087;28;5363;-63
2022/01/31 04:34:40;;;;;;;;;;;;;;;21.47;42.25;100350.44;5079962;28;4175;-62
2022/01/31 04:37:07;;;;;;;;;;;;;;;21.48;41.94;100343.25;5078105;28;5427;-62
2022/01/31 04:39:34;;;;;;;;;;;;;;;21.47;42.13;100339.63;5077081;28;4335;-63
2022/01/31 04:42:00;;;;;;;;;;;;;;;21.48;42.19;100338.22;5079935;28;4172;-63
2022/01/31 04:44:26;;;;;;;;;;;;;;;21.48;42.02;100323.09;5078580;28;4289;-63
2022/01/31 04:46:54;;;;;;;;;;;;;;;21.50;41.88;100320.28;5077077;28;4502;-62
2022/01/31 04:49:21;;;;;;;;;;;;;;;21.51;42.04;100307.38;5080031;28;4389;-63
2022/01/31 04:51:47;;;;;;;;;;;;;;;21.50;42.22;100303.00;5078296;28;4163;-63
2022/01/31 04:54:13;;;;;;;;;;;;;;;21.51;42.19;100282.16;5077766;28;5254;-63
2022/01/31 04:56:42;;;;;;;;;;;;;;;21.52;41.97;100294.41;5077755;28;4074;-63
2022/01/31 04:59:08;;;;;;;;;;;;;;;21.51;41.95;100278.56;5077330;28;4265;-63
2022/01/31 05:01:35;;;;;;;;;;;;;;;21.51;42.14;100281.44;5078151;28;4380;-63
2022/01/31 05:04:01;;;;;;;;;;;;;;;21.51;42.02;100276.41;5078125;28;4257;-63
2022/01/31 05:06:35;;;;;;;;;;;;;;;21.50;42.18;100265.53;5079229;28;4707;-63
2022/01/31 05:09:01;;;;;;;;;;;;;;;21.49;42.31;100266.97;5075585;28;4180;-63
2022/01/31 05:11:27;;;;;;;;;;;;;;;21.47;42.36;100261.88;5076869;28;4315;-62
2022/01/31 05:13:54;;;;;;;;;;;;;;;21.48;42.41;100260.44;5077547;28;4593;-63
2022/01/31 05:16:20;;;;;;;;;;;;;;;21.48;42.26;100245.31;5077043;28;4248;-62
2022/01/31 05:18:47;;;;;;;;;;;;;;;21.49;42.30;100233.13;5080355;28;4237;-63
2022/01/31 05:21:13;;;;;;;;;;;;;;;21.50;42.18;100239.63;5074562;28;4067;-63
2022/01/31 05:23:39;;;;;;;;;;;;;;;21.49;42.25;100223.75;5077859;28;4336;-63
2022/01/31 05:26:06;;;;;;;;;;;;;;;21.52;42.17;100222.41;5075356;28;4157;-63
2022/01/31 05:28:32;;;;;;;;;;;;;;;21.52;42.05;100219.53;5078474;28;4290;-63
2022/01/31 05:30:58;;;;;;;;;;;;;;;21.54;42.24;100213.81;5078197;28;5348;-62
2022/01/31 05:33:24;;;;;;;;;;;;;;;21.54;42.12;100216.72;5078165;28;5254;-63
2022/01/31 05:35:52;;;;;;;;;;;;;;;21.56;42.09;100201.66;5077656;28;4229;-63
2022/01/31 05:38:19;;;;;;;;;;;;;;;21.56;41.98;100190.84;5076638;28;4075;-63
2022/01/31 05:40:45;;;;;;;;;;;;;;;21.56;42.07;100190.84;5078355;28;4290;-63
2022/01/31 05:43:11;;;;;;;;;;;;;;;21.56;42.28;100193.00;5076248;28;4221;-62
2022/01/31 05:45:38;;;;;;;;;;;;;;;21.55;42.26;100180.72;5078597;28;4291;-63
2022/01/31 05:48:04;;;;;;;;;;;;;;;21.54;42.29;100176.38;5077482;28;4314;-63
2022/01/31 05:50:30;;;;;;;;;;;;;;;21.55;42.10;100172.06;5075783;28;4122;-63
2022/01/31 05:52:57;;;;;;;;;;;;;;;21.55;42.34;100160.56;5076021;28;5248;-63
2022/01/31 05:55:23;;;;;;;;;;;;;;;21.54;42.13;100154.06;5081963;28;4174;-63
2022/01/31 05:57:49;;;;;;;;;;;;;;;21.55;42.35;100143.28;5082130;28;4237;-63
2022/01/31 06:00:20;;;;;;;;;;;;;;;21.55;42.30;100143.28;5081577;28;5472;-63
2022/01/31 06:02:47;;;;;;;;;;;;;;;21.56;42.33;100138.25;5083196;28;4250;-64
2022/01/31 06:05:13;;;;;;;;;;;;;;;21.56;42.36;100126.75;5069206;28;4272;-64
2022/01/31 06:07:40;;;;;;;;;;;;;;;21.55;42.20;100123.09;5087680;28;4422;-64
2022/01/31 06:10:06;;;;;;;;;;;;;;;21.54;42.45;100119.50;5084606;28;4199;-64
2022/01/31 06:12:33;;;;;;;;;;;;;;;21.53;42.34;100118.03;5083759;28;4237;-64
2022/01/31 06:14:59;;;;;;;;;;;;;;;21.52;42.33;100105.03;5086283;28;4240;-64
2022/01/31 06:17:25;;;;;;;;;;;;;;;21.51;42.45;100103.56;5085622;28;5378;-64
2022/01/31 06:19:52;;;;;;;;;;;;;;;21.49;42.43;100094.13;5085118;28;5247;-64
2022/01/31 06:22:18;;;;;;;;;;;;;;;21.52;42.47;100098.53;5083076;28;4234;-64
2022/01/31 06:24:44;;;;;;;;;;;;;;;21.53;42.49;100088.47;5080441;28;4343;-64
2022/01/31 06:27:16;;;;;;;;;;;;;;;21.53;42.48;100083.47;5065975;28;4354;-64
2022/01/31 06:29:46;;;;;;;;;;;;;;;21.54;42.41;100078.44;5067416;28;5376;-64
2022/01/31 06:32:25;;;;;;;;;;;;;;;21.55;42.26;100071.25;5084488;28;4187;-64
2022/01/31 06:34:53;;;;;;;;;;;;;;;21.54;42.26;100061.88;5087031;28;5281;-63
2022/01/31 06:37:19;;;;;;;;;;;;;;;21.57;42.28;100053.31;5084982;28;4791;-63
2022/01/31 06:39:45;;;;;;;;;;;;;;;21.56;42.42;100046.81;5085143;28;5342;-64
2022/01/31 06:42:12;;;;;;;;;;;;;;;21.58;42.29;100037.47;5086352;28;4239;-64
2022/01/31 06:44:39;;;;;;;;;;;;;;;21.38;43.90;100023.22;5077528;28;4049;-59
2022/01/31 06:47:06;;;;;;;;;;;;;;;21.38;43.97;100026.81;5083660;28;4229;-59
2022/01/31 06:49:32;;;;;;;;;;;;;;;21.19;42.02;100022.69;5078205;28;4316;-59
2022/01/31 06:51:58;;;;;;;;;;;;;;;21.22;42.55;100009.81;5084135;28;4201;-59
2022/01/31 06:54:25;;;;;;;;;;;;;;;21.27;42.31;100004.91;5085376;28;4122;-58
2022/01/31 06:56:51;;;;;;;;;;;;;;;21.30;42.86;100004.31;5083814;28;4379;-59
2022/01/31 06:59:18;;;;;;;;;;;;;;;21.31;43.25;100000.00;5084333;28;5255;-59
2022/01/31 07:01:44;;;;;;;;;;;;;;;21.32;43.26;100003.59;5084997;28;4196;-58
2022/01/31 07:04:11;;;;;;;;;;;;;;;21.31;43.22;99988.47;5087245;28;4525;-58
2022/01/31 07:06:37;;;;;;;;;;;;;;;21.30;43.21;99995.66;5083342;28;4648;-59
2022/01/31 07:09:04;;;;;;;;;;;;;;;21.29;43.21;99999.94;5077293;28;4384;-58
2022/01/31 07:11:35;;;;;;;;;;;;;;;21.24;42.76;99989.00;5085145;28;4530;-58
2022/01/31 07:14:05;;;;;;;;;;;;;;;20.68;37.92;100000.97;5080748;28;4314;-58
2022/01/31 07:16:32;;;;;;;;;;;;;;;19.95;35.39;99994.28;5080566;28;4210;-59
2022/01/31 07:19:07;;;;;;;;;;;;;;;19.28;32.82;99989.00;5080727;28;5133;-58
2022/01/31 07:21:39;;;;;;;;;;;;;;;18.39;32.72;99988.47;5082864;28;4087;-58
2022/01/31 07:24:19;;;;;;;;;;;;;;;19.36;33.43;99989.31;5068765;28;4199;-63
2022/01/31 07:26:46;;;;;;;;;;;;;;;20.02;33.76;99981.59;5078954;28;4508;-61
2022/01/31 07:29:12;;;;;;;;;;;;;;;20.09;35.16;99979.66;5077490;28;4201;-61
2022/01/31 07:31:39;;;;;;;;;;;;;;;20.14;35.82;99969.03;5076586;28;4232;-62
2022/01/31 07:34:06;;;;;;;;;;;;;;;20.27;36.08;99976.63;5056299;28;4347;-62
2022/01/31 07:36:32;;;;;;;;;;;;;;;20.25;36.25;99967.97;5059492;28;4335;-62
2022/01/31 07:38:58;;;;;;;;;;;;;;;20.31;36.65;99962.41;5080386;28;4242;-59
2022/01/31 07:41:25;;;;;;;;;;;;;;;20.48;36.74;99955.78;5082551;28;3955;-59
2022/01/31 07:43:52;;;;;;;;;;;;;;;20.46;36.49;99963.59;5071978;28;4277;-59
2022/01/31 07:46:19;;;;;;;;;;;;;;;20.49;36.37;99957.22;5068895;28;5631;-58
2022/01/31 07:48:48;;;;;;;;;;;;;;;20.97;36.71;99938.56;5070985;28;4212;-58
2022/01/31 07:51:16;;;;;;;;;;;;;;;21.24;36.89;99943.66;5078628;28;4911;-52
2022/01/31 07:53:43;;;;;;;;;;;;;;;21.38;37.23;99939.72;5076346;28;5326;-51
2022/01/31 07:56:10;;;;;;;;;;;;;;;21.47;37.60;99935.66;5076974;28;5220;-55
2022/01/31 07:58:37;;;;;;;;;;;;;;;21.51;37.65;99930.03;5078876;28;4217;-51
2022/01/31 08:01:04;;;;;;;;;;;;;;;21.62;37.98;99923.09;5081495;28;4220;-56
2022/01/31 08:03:31;;;;;;;;;;;;;;;21.64;37.96;99908.00;5079480;28;4198;-46
2022/01/31 08:05:57;;;;;;;;;;;;;;;21.79;38.57;99906.25;5080623;28;5549;-58
2022/01/31 08:08:24;;;;;;;;;;;;;;;21.88;38.73;99900.00;5078704;28;6289;-58
2022/01/31 08:10:50;;;;;;;;;;;;;;;21.92;38.71;99902.22;5081359;28;4271;-58
2022/01/31 08:13:17;;;;;;;;;;;;;;;21.92;38.81;99902.22;5076421;28;4197;-59
2022/01/31 08:15:49;;;;;;;;;;;;;;;21.80;38.97;99896.91;5071949;28;4374;-55
2022/01/31 08:18:15;;;;;;;;;;;;;;;21.82;39.13;99893.34;5080140;28;5389;-52
2022/01/31 08:20:43;;;;;;;;;;;;;;;21.79;39.23;99894.72;5081605;28;4366;-53
2022/01/31 08:23:10;;;;;;;;;;;;;;;21.77;39.13;99886.75;5074616;28;4181;-53
2022/01/31 08:25:37;;;;;;;;;;;;;;;21.81;39.31;99880.38;5079800;28;4162;-56
2022/01/31 08:28:09;;;;;;;;;;;;;;;21.82;39.50;99878.94;5081069;28;4256;-54
2022/01/31 08:30:57;;;;;;;;;;;;;;;21.83;39.64;99889.78;5078731;28;4172;-53
2022/01/31 08:33:39;;;;;;;;;;;;;;;21.85;39.80;99886.97;5077330;28;4385;-55
2022/01/31 08:36:06;;;;;;;;;;;;;;;21.79;39.19;99877.44;5075820;28;4164;-52
2022/01/31 08:38:36;;;;;;;;;;;;;;;21.71;39.57;99875.78;5081613;28;5552;-59
2022/01/31 08:41:03;;;;;;;;;;;;;;;21.88;39.35;99867.56;5076843;28;4211;-62
2022/01/31 08:43:29;;;;;;;;;;;;;;;21.95;39.68;99869.16;5077401;28;4089;-60
2022/01/31 08:45:56;;;;;;;;;;;;;;;21.98;39.69;99864.91;5079663;28;4353;-61
2022/01/31 08:48:23;;;;;;;;;;;;;;;22.00;39.88;99856.31;5082653;28;4145;-50
2022/01/31 08:50:50;;;;;;;;;;;;;;;22.03;39.82;99860.69;5079354;28;4363;-55
2022/01/31 08:53:16;;;;;;;;;;;;;;;21.58;39.11;99853.88;5076095;28;4175;-55
2022/01/31 08:55:48;;;;;;;;;;;;;;;21.63;39.46;99848.94;5073932;28;5260;-61
2022/01/31 08:58:14;;;;;;;;;;;;;;;21.50;39.50;99853.66;5078789;28;5298;-60
2022/01/31 09:00:42;;;;;;;;;;;;;;;21.57;39.64;99846.63;5074228;28;4305;-60
2022/01/31 09:05:38;;;;;;;;;;;;;;;21.74;39.83;99842.75;5076933;28;4102;-60
2022/01/31 09:08:04;;;;;;;;;;;;;;;21.86;39.99;99850.22;5073402;28;4117;-59
2022/01/31 09:10:30;;;;;;;;;;;;;;;21.60;40.45;99842.41;5080275;28;4447;-58
2022/01/31 09:12:57;;;;;;;;;;;;;;;21.65;40.23;99835.31;5080006;28;5324;-53
2022/01/31 09:15:23;;;;;;;;;;;;;;;21.64;40.51;99833.84;5077879;28;4308;-49
2022/01/31 09:17:50;;;;;;;;;;;;;;;21.63;41.15;99826.63;5074327;28;5494;-51
2022/01/31 09:20:16;;;;;;;;;;;;;;;21.60;41.49;99821.47;5074842;28;4158;-54
2022/01/31 09:22:43;;;;;;;;;;;;;;;21.74;41.38;99822.56;5081611;28;4441;-50
2022/01/31 09:25:10;;;;;;;;;;;;;;;21.82;41.49;99818.41;5075496;28;4814;-55
2022/01/31 09:27:36;;;;;;;;;;;;;;;21.89;41.49;99814.97;5080091;28;4239;-53
2022/01/31 09:30:04;;;;;;;;;;;;;;;21.96;41.41;99804.34;5080611;28;4243;-48
2022/01/31 09:32:30;;;;;;;;;;;;;;;22.00;41.76;99815.97;5083324;28;4249;-50
2022/01/31 09:34:56;;;;;;;;;;;;;;;22.06;41.41;99819.00;5077561;28;4204;-48
2022/01/31 09:37:23;;;;;;;;;;;;;;;22.09;41.72;99814.72;5084192;28;4278;-57
2022/01/31 09:39:49;;;;;;;;;;;;;;;22.12;41.72;99815.50;5084676;28;4350;-56
2022/01/31 09:42:25;;;;;;;;;;;;;;;21.96;41.17;99807.22;5081648;28;5352;-49
2022/01/31 09:45:08;;;;;;;;;;;;;;;21.99;41.57;99808.75;5078169;28;4126;-58
2022/01/31 09:50:19;;;;;;;;;;;;;;;22.09;41.51;99803.19;5077952;28;4190;-55
2022/01/31 09:52:46;;;;;;;;;;;;;;;21.70;39.09;99795.81;5081225;28;6566;-56
2022/01/31 09:55:12;;;;;;;;;;;;;;;21.57;39.38;99794.78;5077858;28;4132;-54
2022/01/31 09:57:39;;;;;;;;;;;;;;;21.57;40.32;99791.91;5080208;28;4269;-53
2022/01/31 10:00:05;;;;;;;;;;;;;;;21.65;40.04;99794.97;5080763;28;4190;-56
2022/01/31 10:02:38;;;;;;;;;;;;;;;21.64;39.62;99799.25;5077065;28;4096;-55
2022/01/31 10:05:05;;;;;;;;;;;;;;;21.55;39.81;99803.38;5077139;28;4317;-55
2022/01/31 10:07:44;;;;;;;;;;;;;;;21.54;39.67;99796.88;5081557;28;4234;-60
2022/01/31 10:10:18;;;;;;;;;;;;;;;21.53;39.58;99794.66;5076684;28;4129;-61
2022/01/31 10:18:08;;;;;;;;;;;;;;;21.57;39.87;99786.13;5078124;28;5285;-57
2022/01/31 10:20:54;;;;;;;;;;;;;;;21.60;39.96;99796.31;5080517;28;5252;-60
2022/01/31 10:23:21;;;;;;;;;;;;;;;21.59;39.68;99791.94;5056132;28;4080;-59
2022/01/31 10:25:47;;;;;;;;;;;;;;;21.62;39.60;99793.44;5076249;28;4216;-59
2022/01/31 10:28:14;;;;;;;;;;;;;;;21.62;40.00;99784.81;5083448;28;4169;-59
2022/01/31 10:30:40;;;;;;;;;;;;;;;21.60;39.57;99787.66;5085420;28;4527;-59
2022/01/31 10:33:07;;;;;;;;;;;;;;;21.59;39.77;99768.91;5081137;28;4174;-53
2022/01/31 10:35:34;;;;;;;;;;;;;;;21.64;39.74;99781.97;5076594;28;4246;-54
2022/01/31 10:38:03;;;;;;;;;;;;;;;21.67;39.64;99779.88;5078299;28;4044;-49
2022/01/31 10:43:48;;;;;;;;;;;;;;;21.61;39.26;99783.34;5074366;28;4017;-52
2022/01/31 10:54:13;;;;;;;;;;;;;;;21.54;40.10;99764.47;5072806;28;4201;-62
2022/01/31 10:56:49;;;;;;;;;;;;;;;21.67;39.75;99757.59;5077374;28;4055;-62
2022/01/31 10:59:16;;;;;;;;;;;;;;;21.67;39.45;99769.09;5077264;28;4220;-62
2022/01/31 11:01:45;;;;;;;;;;;;;;;21.68;39.31;99776.31;5073215;28;4113;-59
2022/01/31 11:04:34;;;;;;;;;;;;;;;21.67;39.09;99766.22;5076962;28;4075;-61
2022/01/31 11:07:01;;;;;;;;;;;;;;;21.66;39.11;99764.75;5077658;28;4249;-60
2022/01/31 11:09:28;;;;;;;;;;;;;;;21.61;39.29;99759.59;5078145;28;4232;-63
2022/01/31 11:11:55;;;;;;;;;;;;;;;21.67;39.27;99774.88;5073825;28;4559;-63
2022/01/31 11:14:21;;;;;;;;;;;;;;;21.67;38.79;99772.00;5081815;28;4226;-62
2022/01/31 11:16:51;;;;;;;;;;;;;;;21.63;39.09;99769.00;5080335;28;5268;-59
2022/01/31 11:19:23;;;;;;;;;;;;;;;21.46;39.26;99767.13;5077180;28;4059;-59
2022/01/31 11:21:50;;;;;;;;;;;;;;;21.33;37.23;99772.56;5070649;28;4271;-60
2022/01/31 11:24:19;;;;;;;;;;;;;;;21.46;36.85;99772.91;5056882;28;4055;-59
2022/01/31 11:26:47;;;;;;;;;;;;;;;21.58;37.32;99770.31;5059787;28;4584;-57
2022/01/31 11:29:13;;;;;;;;;;;;;;;21.67;37.52;99769.09;5054049;28;4362;-59
2022/01/31 11:31:39;;;;;;;;;;;;;;;21.81;38.31;99759.34;5072900;28;4173;-54
2022/01/31 11:34:06;;;;;;;;;;;;;;;21.91;38.03;99766.03;5076412;28;4217;-58
2022/01/31 11:36:34;;;;;;;;;;;;;;;21.91;38.47;99760.28;5077415;28;4069;-57
2022/01/31 11:39:01;;;;;;;;;;;;;;;21.94;38.53;99761.06;5073558;28;4198;-55
2022/01/31 11:41:27;;;;;;;;;;;;;;;21.99;39.25;99767.63;5069789;28;4082;-58
2022/01/31 11:43:55;;;;;;;;;;;;;;;21.82;39.34;99755.75;5077115;28;4305;-59
2022/01/31 11:46:22;;;;;;;;;;;;;;;21.81;39.23;99756.44;5080748;28;4106;-57
2022/01/31 11:48:52;;;;;;;;;;;;;;;21.92;39.67;99758.13;5081982;28;4517;-55
2022/01/31 11:51:19;;;;;;;;;;;;;;;21.93;39.20;99759.59;5073536;28;4032;-57
2022/01/31 11:53:45;;;;;;;;;;;;;;;21.85;39.19;99760.16;5077938;28;4920;-54
2022/01/31 11:56:20;;;;;;;;;;;;;;;21.51;37.94;99768.72;5074731;28;4218;-56
2022/01/31 11:58:47;;;;;;;;;;;;;;;21.26;36.33;99770.97;5078912;28;4276;-57
2022/01/31 12:01:14;;;;;;;;;;;;;;;21.62;37.30;99761.03;5074871;28;4221;-55
2022/01/31 12:03:51;;;;;;;;;;;;;;;21.85;38.08;99776.69;5076736;28;4271;-52
2022/01/31 12:06:34;;;;;;;;;;;;;;;21.69;36.90;99772.03;5069996;28;4178;-57
2022/01/31 12:09:04;;;;;;;;;;;;;;;21.78;37.83;99760.69;5056633;28;4161;-58
2022/01/31 12:11:31;;;;;;;;;;;;;;;21.62;39.05;99766.78;5075306;28;4237;-51
2022/01/31 12:14:07;;;;;;;;;;;;;;;16.65;41.75;99777.91;5078317;28;4275;-53
2022/01/31 12:17:15;;;;;;;;;;;;;;;19.78;38.66;99782.56;5077935;28;4164;-67
2022/01/31 12:22:05;;;;;;;;;;;;;;;20.97;39.37;99766.59;5077888;28;5252;-61
2022/01/31 12:24:32;;;;;;;;;;;;;;;21.10;38.93;99767.66;5078147;28;4228;-61
2022/01/31 12:27:07;;;;;;;;;;;;;;;21.12;38.75;99773.47;5074483;28;4341;-60
2022/01/31 12:29:37;;;;;;;;;;;;;;;21.28;39.06;99765.25;5083478;28;4962;-57
2022/01/31 12:32:17;;;;;;;;;;;;;;;21.45;39.08;99765.69;5081461;28;6551;-49
2022/01/31 12:34:47;;;;;;;;;;;;;;;21.53;39.20;99771.63;5076671;28;4390;-49
2022/01/31 12:37:14;;;;;;;;;;;;;;;21.57;39.47;99765.97;5074794;28;5210;-48
2022/01/31 12:39:43;;;;;;;;;;;;;;;21.70;39.84;99767.00;5077023;28;4175;-49
2022/01/31 12:43:11;;;;;;;;;;;;;;;21.78;39.49;99772.22;5075070;28;4391;-54
2022/01/31 12:45:37;;;;;;;;;;;;;;;21.83;39.41;99762.25;5069120;28;4405;-50
2022/01/31 12:48:15;;;;;;;;;;;;;;;21.86;39.26;99773.13;5075081;28;5058;-54
2022/01/31 12:50:50;;;;;;;;;;;;;;;21.90;39.37;99769.63;5074956;28;4244;-52
2022/01/31 12:53:22;;;;;;;;;;;;;;;21.92;39.35;99781.94;5074627;28;4479;-52
2022/01/31 12:56:02;;;;;;;;;;;;;;;21.90;39.16;99778.28;5077458;28;4352;-59
2022/01/31 12:58:30;;;;;;;;;;;;;;;21.54;39.91;99781.75;5075599;28;4358;-59
2022/01/31 13:00:56;;;;;;;;;;;;;;;21.59;40.02;99774.66;5071775;28;4195;-59
2022/01/31 13:03:44;;;;;;;;;;;;;;;21.60;40.20;99776.16;5073195;28;5300;-61
2022/01/31 13:06:33;;;;;;;;;;;;;;;21.54;40.35;99779.59;5076053;28;4115;-58
2022/01/31 13:09:00;;;;;;;;;;;;;;;21.59;40.39;99777.53;5077230;28;4248;-59
2022/01/31 13:11:28;;;;;;;;;;;;;;;21.62;40.58;99781.94;5069681;28;5494;-56
2022/01/31 13:14:00;;;;;;;;;;;;;;;21.63;40.52;99780.53;5074866;28;4082;-56
2022/01/31 13:16:27;;;;;;;;;;;;;;;21.58;40.62;99772.47;5079556;28;4277;-58
2022/01/31 13:18:53;;;;;;;;;;;;;;;21.55;40.76;99783.19;5053507;28;5178;-63
2022/01/31 13:21:20;;;;;;;;;;;;;;;21.53;40.60;99783.16;5059072;28;5485;-62
2022/01/31 13:23:46;;;;;;;;;;;;;;;21.58;40.87;99783.97;5078629;28;4243;-62